This is the latest recevied weather packets stored in our database for station/object VE2JOS. If no packets are shown the sender has not sent any weather packets the latest 10 day(s).
| Time | Temp. | Humidity | Pressure | Rain* | Wind** | Luminosity | Snow |
|---|---|---|---|---|---|---|---|
| 1777643437 | 7.78° C | 63% | - | 0 mm | - | - | - |
| 1777641638 | 7.22° C | 62% | - | 0 mm | - | - | - |
| 1777641037 | 7.22° C | 62% | - | 0 mm | - | - | - |
| 1777637438 | 6.11° C | 66% | - | 0 mm | - | - | - |
| 1777636237 | 5.56° C | 70% | - | 0 mm | - | - | - |
| 1777635637 | 5° C | 72% | - | 0 mm | - | - | - |
| 1777635037 | 5° C | 73% | - | 0 mm | - | - | - |
| 1777634438 | 4.44° C | 75% | - | 0 mm | - | - | - |
| 1777633257 | 3.89° C | 79% | - | 0 mm | - | - | - |
| 1777629637 | 3.33° C | 78% | - | 0 mm | - | - | - |
| 1777625137 | 3.33° C | 82% | - | 0 mm | - | - | - |
| 1777622158 | 3.89° C | 79% | - | 0 mm | - | - | - |
| 1777620357 | 3.89° C | 80% | - | 0 mm | - | - | - |
| 1777619777 | 3.89° C | 79% | - | 0 mm | - | - | - |
| 1777619137 | 3.89° C | 79% | - | 0 mm | - | - | - |
| 1777618537 | 4.44° C | 79% | - | 0 mm | - | - | - |
| 1777616737 | 5° C | 74% | - | 0 mm | - | - | - |
| 1777615537 | 5° C | 75% | - | 0 mm | - | - | - |
| 1777614937 | 5° C | 74% | - | 0 mm | - | - | - |
| 1777613737 | 5.56° C | 73% | - | 0 mm | - | - | - |
| 1777611937 | 5.56° C | 74% | - | 0 mm | - | - | - |
| 1777605937 | 6.67° C | 70% | - | 0 mm | - | - | - |
| 1777604737 | 6.67° C | 69% | - | 0 mm | - | - | - |
| 1777596937 | 8.33° C | 70% | - | 0 mm | - | - | - |
| 1777596336 | 8.89° C | 72% | - | 0 mm | - | - | - |
* Rain latest hour (hover to see other rain measurements)
** Current wind speed in m/s (hover to see current wind gust speed)